sensor_id;sensor_type;location;lat;lon;timestamp;P1;durP1;ratioP1;P2;durP2;ratioP2
8946;SDS011;4508;48.790;9.028;2023-03-01T00:02:04;18.92;;;17.02;;
8946;SDS011;4508;48.790;9.028;2023-03-01T00:04:31;19.27;;;17.48;;
8946;SDS011;4508;48.790;9.028;2023-03-01T00:06:58;19.85;;;17.95;;
8946;SDS011;4508;48.790;9.028;2023-03-01T00:09:26;18.90;;;17.10;;
8946;SDS011;4508;48.790;9.028;2023-03-01T00:11:53;19.63;;;17.67;;
8946;SDS011;4508;48.790;9.028;2023-03-01T00:14:20;20.77;;;18.67;;
8946;SDS011;4508;48.790;9.028;2023-03-01T00:16:46;20.35;;;18.45;;
8946;SDS011;4508;48.790;9.028;2023-03-01T00:19:15;20.23;;;18.33;;
8946;SDS011;4508;48.790;9.028;2023-03-01T00:21:43;20.87;;;18.97;;
8946;SDS011;4508;48.790;9.028;2023-03-01T00:24:10;19.33;;;17.42;;
8946;SDS011;4508;48.790;9.028;2023-03-01T00:26:38;20.23;;;18.27;;
8946;SDS011;4508;48.790;9.028;2023-03-01T00:29:05;20.42;;;18.52;;
8946;SDS011;4508;48.790;9.028;2023-03-01T00:31:32;19.80;;;17.90;;
8946;SDS011;4508;48.790;9.028;2023-03-01T00:33:59;19.27;;;17.43;;
8946;SDS011;4508;48.790;9.028;2023-03-01T00:36:28;19.65;;;17.75;;
8946;SDS011;4508;48.790;9.028;2023-03-01T00:38:55;20.30;;;18.40;;
8946;SDS011;4508;48.790;9.028;2023-03-01T00:41:22;19.20;;;17.40;;
8946;SDS011;4508;48.790;9.028;2023-03-01T00:43:52;19.08;;;17.25;;
8946;SDS011;4508;48.790;9.028;2023-03-01T00:46:21;20.17;;;18.27;;
8946;SDS011;4508;48.790;9.028;2023-03-01T00:48:49;19.38;;;17.58;;
8946;SDS011;4508;48.790;9.028;2023-03-01T00:51:16;20.13;;;18.27;;
8946;SDS011;4508;48.790;9.028;2023-03-01T00:53:45;20.00;;;18.20;;
8946;SDS011;4508;48.790;9.028;2023-03-01T00:56:12;20.85;;;18.85;;
8946;SDS011;4508;48.790;9.028;2023-03-01T00:58:40;18.83;;;17.02;;
8946;SDS011;4508;48.790;9.028;2023-03-01T01:01:10;19.88;;;18.00;;
8946;SDS011;4508;48.790;9.028;2023-03-01T01:03:43;19.60;;;17.70;;
8946;SDS011;4508;48.790;9.028;2023-03-01T01:06:14;18.83;;;17.08;;
8946;SDS011;4508;48.790;9.028;2023-03-01T01:08:42;19.83;;;17.92;;
8946;SDS011;4508;48.790;9.028;2023-03-01T01:11:09;19.52;;;17.63;;
8946;SDS011;4508;48.790;9.028;2023-03-01T01:13:36;18.60;;;16.80;;
8946;SDS011;4508;48.790;9.028;2023-03-01T01:16:03;18.38;;;16.67;;
8946;SDS011;4508;48.790;9.028;2023-03-01T01:18:31;19.95;;;18.05;;
8946;SDS011;4508;48.790;9.028;2023-03-01T01:21:03;19.98;;;18.08;;
8946;SDS011;4508;48.790;9.028;2023-03-01T01:23:30;18.85;;;17.15;;
8946;SDS011;4508;48.790;9.028;2023-03-01T01:25:57;19.65;;;17.75;;
8946;SDS011;4508;48.790;9.028;2023-03-01T01:28:29;20.20;;;18.33;;
8946;SDS011;4508;48.790;9.028;2023-03-01T01:30:56;19.20;;;17.40;;
8946;SDS011;4508;48.790;9.028;2023-03-01T01:33:22;19.93;;;18.07;;
8946;SDS011;4508;48.790;9.028;2023-03-01T01:35:50;19.27;;;17.47;;
8946;SDS011;4508;48.790;9.028;2023-03-01T01:38:17;19.77;;;17.83;;
8946;SDS011;4508;48.790;9.028;2023-03-01T01:40:44;19.15;;;17.35;;
8946;SDS011;4508;48.790;9.028;2023-03-01T01:43:13;20.00;;;18.10;;
8946;SDS011;4508;48.790;9.028;2023-03-01T01:45:45;19.77;;;17.95;;
8946;SDS011;4508;48.790;9.028;2023-03-01T01:48:12;19.88;;;17.88;;
8946;SDS011;4508;48.790;9.028;2023-03-01T01:50:44;18.52;;;16.73;;
8946;SDS011;4508;48.790;9.028;2023-03-01T01:53:16;18.70;;;16.80;;
8946;SDS011;4508;48.790;9.028;2023-03-01T01:55:46;18.17;;;16.35;;
8946;SDS011;4508;48.790;9.028;2023-03-01T01:58:17;18.80;;;17.00;;
8946;SDS011;4508;48.790;9.028;2023-03-01T02:00:47;18.73;;;16.92;;
8946;SDS011;4508;48.790;9.028;2023-03-01T02:03:14;18.75;;;16.95;;
8946;SDS011;4508;48.790;9.028;2023-03-01T02:05:45;19.10;;;17.20;;
8946;SDS011;4508;48.790;9.028;2023-03-01T02:08:19;19.35;;;17.35;;
8946;SDS011;4508;48.790;9.028;2023-03-01T02:10:47;18.80;;;16.90;;
8946;SDS011;4508;48.790;9.028;2023-03-01T02:13:15;20.35;;;18.45;;
8946;SDS011;4508;48.790;9.028;2023-03-01T02:15:42;18.95;;;17.23;;
8946;SDS011;4508;48.790;9.028;2023-03-01T02:18:10;20.00;;;18.05;;
8946;SDS011;4508;48.790;9.028;2023-03-01T02:20:40;20.85;;;18.92;;
8946;SDS011;4508;48.790;9.028;2023-03-01T02:23:18;19.13;;;17.33;;
8946;SDS011;4508;48.790;9.028;2023-03-01T02:25:47;20.05;;;18.13;;
8946;SDS011;4508;48.790;9.028;2023-03-01T02:28:24;20.67;;;18.75;;
8946;SDS011;4508;48.790;9.028;2023-03-01T02:30:57;20.02;;;18.23;;
8946;SDS011;4508;48.790;9.028;2023-03-01T02:33:42;19.58;;;17.67;;
8946;SDS011;4508;48.790;9.028;2023-03-01T02:36:10;20.00;;;18.10;;
8946;SDS011;4508;48.790;9.028;2023-03-01T02:38:40;20.38;;;18.55;;
8946;SDS011;4508;48.790;9.028;2023-03-01T02:41:07;19.73;;;17.83;;
8946;SDS011;4508;48.790;9.028;2023-03-01T02:43:38;20.30;;;18.40;;
8946;SDS011;4508;48.790;9.028;2023-03-01T02:46:05;20.25;;;18.38;;
8946;SDS011;4508;48.790;9.028;2023-03-01T02:48:41;19.58;;;17.77;;
8946;SDS011;4508;48.790;9.028;2023-03-01T02:51:10;19.88;;;17.92;;
8946;SDS011;4508;48.790;9.028;2023-03-01T02:53:59;20.17;;;18.30;;
8946;SDS011;4508;48.790;9.028;2023-03-01T02:56:33;20.42;;;18.40;;
8946;SDS011;4508;48.790;9.028;2023-03-01T02:59:02;19.33;;;17.33;;
8946;SDS011;4508;48.790;9.028;2023-03-01T03:01:30;18.83;;;17.13;;
8946;SDS011;4508;48.790;9.028;2023-03-01T03:04:01;19.35;;;17.45;;
8946;SDS011;4508;48.790;9.028;2023-03-01T03:06:29;19.90;;;18.08;;
8946;SDS011;4508;48.790;9.028;2023-03-01T03:08:56;18.87;;;17.07;;
8946;SDS011;4508;48.790;9.028;2023-03-01T03:11:23;18.67;;;16.90;;
8946;SDS011;4508;48.790;9.028;2023-03-01T03:13:50;19.45;;;17.55;;
8946;SDS011;4508;48.790;9.028;2023-03-01T03:16:18;19.90;;;18.00;;
8946;SDS011;4508;48.790;9.028;2023-03-01T03:18:45;20.23;;;18.33;;
8946;SDS011;4508;48.790;9.028;2023-03-01T03:21:12;19.55;;;17.75;;
8946;SDS011;4508;48.790;9.028;2023-03-01T03:23:39;19.90;;;18.00;;
8946;SDS011;4508;48.790;9.028;2023-03-01T03:26:06;19.85;;;18.05;;
8946;SDS011;4508;48.790;9.028;2023-03-01T03:28:33;19.40;;;17.60;;
8946;SDS011;4508;48.790;9.028;2023-03-01T03:31:00;20.17;;;18.20;;
8946;SDS011;4508;48.790;9.028;2023-03-01T03:33:30;20.13;;;18.13;;
8946;SDS011;4508;48.790;9.028;2023-03-01T03:35:57;20.60;;;18.70;;
8946;SDS011;4508;48.790;9.028;2023-03-01T03:38:23;20.25;;;18.27;;
8946;SDS011;4508;48.790;9.028;2023-03-01T03:40:50;21.00;;;18.90;;
8946;SDS011;4508;48.790;9.028;2023-03-01T03:43:26;20.38;;;18.58;;
8946;SDS011;4508;48.790;9.028;2023-03-01T03:45:52;19.00;;;17.20;;
8946;SDS011;4508;48.790;9.028;2023-03-01T03:48:22;19.23;;;17.40;;
8946;SDS011;4508;48.790;9.028;2023-03-01T03:50:51;19.42;;;17.63;;
8946;SDS011;4508;48.790;9.028;2023-03-01T03:53:18;20.73;;;18.73;;
8946;SDS011;4508;48.790;9.028;2023-03-01T03:55:46;19.23;;;17.42;;
8946;SDS011;4508;48.790;9.028;2023-03-01T03:58:15;21.08;;;19.08;;
8946;SDS011;4508;48.790;9.028;2023-03-01T04:00:44;21.92;;;19.92;;
8946;SDS011;4508;48.790;9.028;2023-03-01T04:03:12;21.63;;;19.52;;
8946;SDS011;4508;48.790;9.028;2023-03-01T04:05:40;21.23;;;19.23;;
8946;SDS011;4508;48.790;9.028;2023-03-01T04:08:09;21.17;;;19.08;;
8946;SDS011;4508;48.790;9.028;2023-03-01T04:10:36;21.23;;;19.23;;
8946;SDS011;4508;48.790;9.028;2023-03-01T04:13:05;21.73;;;19.67;;
8946;SDS011;4508;48.790;9.028;2023-03-01T04:15:33;21.05;;;19.05;;
8946;SDS011;4508;48.790;9.028;2023-03-01T04:18:00;21.55;;;19.50;;
8946;SDS011;4508;48.790;9.028;2023-03-01T04:20:28;21.38;;;19.38;;
8946;SDS011;4508;48.790;9.028;2023-03-01T04:22:59;20.83;;;18.83;;
8946;SDS011;4508;48.790;9.028;2023-03-01T04:25:36;21.30;;;19.30;;
8946;SDS011;4508;48.790;9.028;2023-03-01T04:28:04;21.08;;;19.17;;
8946;SDS011;4508;48.790;9.028;2023-03-01T04:30:32;20.60;;;18.70;;
8946;SDS011;4508;48.790;9.028;2023-03-01T04:33:01;20.27;;;18.38;;
8946;SDS011;4508;48.790;9.028;2023-03-01T04:35:29;21.35;;;19.35;;
8946;SDS011;4508;48.790;9.028;2023-03-01T04:37:56;21.30;;;19.30;;
8946;SDS011;4508;48.790;9.028;2023-03-01T04:40:22;20.75;;;18.83;;
8946;SDS011;4508;48.790;9.028;2023-03-01T04:42:51;21.17;;;19.17;;
8946;SDS011;4508;48.790;9.028;2023-03-01T04:45:18;20.98;;;19.05;;
8946;SDS011;4508;48.790;9.028;2023-03-01T04:47:45;21.10;;;19.10;;
8946;SDS011;4508;48.790;9.028;2023-03-01T04:50:14;20.90;;;18.92;;
8946;SDS011;4508;48.790;9.028;2023-03-01T04:52:42;21.58;;;19.58;;
8946;SDS011;4508;48.790;9.028;2023-03-01T04:55:09;22.38;;;20.27;;
8946;SDS011;4508;48.790;9.028;2023-03-01T04:57:36;20.58;;;18.63;;
8946;SDS011;4508;48.790;9.028;2023-03-01T05:00:05;21.30;;;19.33;;
8946;SDS011;4508;48.790;9.028;2023-03-01T05:02:44;21.27;;;19.27;;
8946;SDS011;4508;48.790;9.028;2023-03-01T05:05:13;21.77;;;19.67;;
8946;SDS011;4508;48.790;9.028;2023-03-01T05:07:40;21.80;;;19.70;;
8946;SDS011;4508;48.790;9.028;2023-03-01T05:10:07;21.67;;;19.60;;
8946;SDS011;4508;48.790;9.028;2023-03-01T05:12:34;22.00;;;19.90;;
8946;SDS011;4508;48.790;9.028;2023-03-01T05:15:02;21.30;;;19.20;;
8946;SDS011;4508;48.790;9.028;2023-03-01T05:17:33;21.55;;;19.55;;
8946;SDS011;4508;48.790;9.028;2023-03-01T05:20:00;21.48;;;19.48;;
8946;SDS011;4508;48.790;9.028;2023-03-01T05:22:30;21.85;;;19.75;;
8946;SDS011;4508;48.790;9.028;2023-03-01T05:24:57;22.33;;;20.25;;
8946;SDS011;4508;48.790;9.028;2023-03-01T05:27:24;21.00;;;19.00;;
8946;SDS011;4508;48.790;9.028;2023-03-01T05:29:50;22.50;;;20.40;;
8946;SDS011;4508;48.790;9.028;2023-03-01T05:32:17;21.92;;;19.92;;
8946;SDS011;4508;48.790;9.028;2023-03-01T05:34:45;21.45;;;19.38;;
8946;SDS011;4508;48.790;9.028;2023-03-01T05:37:12;21.35;;;19.40;;
8946;SDS011;4508;48.790;9.028;2023-03-01T05:39:39;23.17;;;20.92;;
8946;SDS011;4508;48.790;9.028;2023-03-01T05:42:09;22.23;;;20.13;;
8946;SDS011;4508;48.790;9.028;2023-03-01T05:44:37;22.88;;;20.70;;
8946;SDS011;4508;48.790;9.028;2023-03-01T05:47:04;22.37;;;20.17;;
8946;SDS011;4508;48.790;9.028;2023-03-01T05:49:31;22.00;;;19.90;;
8946;SDS011;4508;48.790;9.028;2023-03-01T05:51:59;23.02;;;20.92;;
8946;SDS011;4508;48.790;9.028;2023-03-01T05:54:26;22.38;;;20.17;;
8946;SDS011;4508;48.790;9.028;2023-03-01T05:56:52;23.15;;;20.95;;
8946;SDS011;4508;48.790;9.028;2023-03-01T05:59:19;21.35;;;19.27;;
8946;SDS011;4508;48.790;9.028;2023-03-01T06:01:46;21.67;;;19.58;;
8946;SDS011;4508;48.790;9.028;2023-03-01T06:04:12;20.48;;;18.48;;
8946;SDS011;4508;48.790;9.028;2023-03-01T06:06:39;20.10;;;18.13;;
8946;SDS011;4508;48.790;9.028;2023-03-01T06:09:07;20.55;;;18.45;;
8946;SDS011;4508;48.790;9.028;2023-03-01T06:11:34;21.02;;;19.02;;
8946;SDS011;4508;48.790;9.028;2023-03-01T06:14:02;20.53;;;18.43;;
8946;SDS011;4508;48.790;9.028;2023-03-01T06:16:29;20.85;;;18.63;;
8946;SDS011;4508;48.790;9.028;2023-03-01T06:18:56;20.95;;;18.85;;
8946;SDS011;4508;48.790;9.028;2023-03-01T06:21:23;20.95;;;18.65;;
8946;SDS011;4508;48.790;9.028;2023-03-01T06:23:49;20.65;;;18.55;;
8946;SDS011;4508;48.790;9.028;2023-03-01T06:26:18;20.23;;;18.25;;
8946;SDS011;4508;48.790;9.028;2023-03-01T06:28:44;20.53;;;18.43;;
8946;SDS011;4508;48.790;9.028;2023-03-01T06:31:11;20.95;;;18.92;;
8946;SDS011;4508;48.790;9.028;2023-03-01T06:33:38;20.98;;;18.83;;
8946;SDS011;4508;48.790;9.028;2023-03-01T06:36:05;20.98;;;18.90;;
8946;SDS011;4508;48.790;9.028;2023-03-01T06:38:33;21.55;;;19.35;;
8946;SDS011;4508;48.790;9.028;2023-03-01T06:40:59;21.00;;;18.90;;
8946;SDS011;4508;48.790;9.028;2023-03-01T06:43:28;21.02;;;18.92;;
8946;SDS011;4508;48.790;9.028;2023-03-01T06:45:55;21.48;;;19.42;;
8946;SDS011;4508;48.790;9.028;2023-03-01T06:48:21;21.88;;;19.52;;
8946;SDS011;4508;48.790;9.028;2023-03-01T06:50:48;20.75;;;18.55;;
8946;SDS011;4508;48.790;9.028;2023-03-01T06:53:14;21.17;;;19.08;;
8946;SDS011;4508;48.790;9.028;2023-03-01T06:55:41;21.92;;;19.80;;
8946;SDS011;4508;48.790;9.028;2023-03-01T06:58:08;21.67;;;19.50;;
8946;SDS011;4508;48.790;9.028;2023-03-01T07:00:36;21.65;;;19.45;;
8946;SDS011;4508;48.790;9.028;2023-03-01T07:03:05;22.02;;;19.73;;
8946;SDS011;4508;48.790;9.028;2023-03-01T07:05:32;20.73;;;18.63;;
8946;SDS011;4508;48.790;9.028;2023-03-01T07:08:00;21.55;;;19.27;;
8946;SDS011;4508;48.790;9.028;2023-03-01T07:10:27;21.77;;;19.67;;
8946;SDS011;4508;48.790;9.028;2023-03-01T07:12:54;22.23;;;20.00;;
8946;SDS011;4508;48.790;9.028;2023-03-01T07:15:21;21.15;;;19.05;;
8946;SDS011;4508;48.790;9.028;2023-03-01T07:17:50;21.02;;;18.92;;
8946;SDS011;4508;48.790;9.028;2023-03-01T07:20:17;20.77;;;18.77;;
8946;SDS011;4508;48.790;9.028;2023-03-01T07:22:47;21.63;;;19.40;;
8946;SDS011;4508;48.790;9.028;2023-03-01T07:25:14;20.58;;;18.38;;
8946;SDS011;4508;48.790;9.028;2023-03-01T07:27:40;20.67;;;18.60;;
8946;SDS011;4508;48.790;9.028;2023-03-01T07:30:07;21.42;;;19.23;;
8946;SDS011;4508;48.790;9.028;2023-03-01T07:32:35;20.33;;;18.23;;
8946;SDS011;4508;48.790;9.028;2023-03-01T07:35:03;20.17;;;18.02;;
8946;SDS011;4508;48.790;9.028;2023-03-01T07:37:30;19.40;;;17.40;;
8946;SDS011;4508;48.790;9.028;2023-03-01T07:39:57;19.70;;;17.80;;
8946;SDS011;4508;48.790;9.028;2023-03-01T07:42:24;19.63;;;17.73;;
8946;SDS011;4508;48.790;9.028;2023-03-01T07:44:50;18.85;;;17.05;;
8946;SDS011;4508;48.790;9.028;2023-03-01T07:47:17;19.02;;;17.10;;
8946;SDS011;4508;48.790;9.028;2023-03-01T07:49:44;18.35;;;16.45;;
8946;SDS011;4508;48.790;9.028;2023-03-01T07:52:12;19.05;;;17.15;;
8946;SDS011;4508;48.790;9.028;2023-03-01T07:54:38;19.20;;;17.25;;
8946;SDS011;4508;48.790;9.028;2023-03-01T07:57:08;19.75;;;17.88;;
8946;SDS011;4508;48.790;9.028;2023-03-01T07:59:34;18.53;;;16.63;;
8946;SDS011;4508;48.790;9.028;2023-03-01T08:02:01;19.30;;;17.40;;
8946;SDS011;4508;48.790;9.028;2023-03-01T08:04:28;18.52;;;16.73;;
8946;SDS011;4508;48.790;9.028;2023-03-01T08:06:54;18.58;;;16.77;;
8946;SDS011;4508;48.790;9.028;2023-03-01T08:09:22;18.73;;;16.88;;
8946;SDS011;4508;48.790;9.028;2023-03-01T08:11:49;18.92;;;17.08;;
8946;SDS011;4508;48.790;9.028;2023-03-01T08:14:16;18.98;;;17.17;;
8946;SDS011;4508;48.790;9.028;2023-03-01T08:16:43;19.63;;;17.63;;
8946;SDS011;4508;48.790;9.028;2023-03-01T08:19:10;18.38;;;16.67;;
8946;SDS011;4508;48.790;9.028;2023-03-01T08:21:37;19.20;;;17.35;;
8946;SDS011;4508;48.790;9.028;2023-03-01T08:24:05;18.77;;;16.95;;
8946;SDS011;4508;48.790;9.028;2023-03-01T08:26:34;18.35;;;16.65;;
8946;SDS011;4508;48.790;9.028;2023-03-01T08:29:00;18.90;;;17.00;;
8946;SDS011;4508;48.790;9.028;2023-03-01T08:31:29;19.75;;;17.75;;
8946;SDS011;4508;48.790;9.028;2023-03-01T08:34:00;19.08;;;17.27;;
8946;SDS011;4508;48.790;9.028;2023-03-01T08:36:30;18.30;;;16.40;;
8946;SDS011;4508;48.790;9.028;2023-03-01T08:38:58;18.13;;;16.42;;
8946;SDS011;4508;48.790;9.028;2023-03-01T08:41:25;18.40;;;16.60;;
8946;SDS011;4508;48.790;9.028;2023-03-01T08:43:53;19.45;;;17.55;;
8946;SDS011;4508;48.790;9.028;2023-03-01T08:46:23;19.40;;;17.60;;
8946;SDS011;4508;48.790;9.028;2023-03-01T08:48:50;19.00;;;17.17;;
8946;SDS011;4508;48.790;9.028;2023-03-01T08:51:17;19.30;;;17.42;;
8946;SDS011;4508;48.790;9.028;2023-03-01T08:53:46;18.27;;;16.58;;
8946;SDS011;4508;48.790;9.028;2023-03-01T08:56:13;20.02;;;18.13;;
8946;SDS011;4508;48.790;9.028;2023-03-01T08:58:43;18.52;;;16.67;;
8946;SDS011;4508;48.790;9.028;2023-03-01T09:01:12;19.05;;;17.20;;
8946;SDS011;4508;48.790;9.028;2023-03-01T09:03:41;18.38;;;16.67;;
8946;SDS011;4508;48.790;9.028;2023-03-01T09:06:08;18.02;;;16.33;;
8946;SDS011;4508;48.790;9.028;2023-03-01T09:08:35;19.05;;;17.25;;
8946;SDS011;4508;48.790;9.028;2023-03-01T09:11:02;18.98;;;17.27;;
8946;SDS011;4508;48.790;9.028;2023-03-01T09:13:30;18.95;;;17.05;;
8946;SDS011;4508;48.790;9.028;2023-03-01T09:15:57;18.60;;;16.70;;
8946;SDS011;4508;48.790;9.028;2023-03-01T09:18:25;19.63;;;17.73;;
8946;SDS011;4508;48.790;9.028;2023-03-01T09:20:52;19.15;;;17.35;;
8946;SDS011;4508;48.790;9.028;2023-03-01T09:23:21;19.23;;;17.38;;
8946;SDS011;4508;48.790;9.028;2023-03-01T09:25:47;18.67;;;16.88;;
8946;SDS011;4508;48.790;9.028;2023-03-01T09:28:14;19.37;;;17.47;;
8946;SDS011;4508;48.790;9.028;2023-03-01T09:30:40;19.75;;;17.85;;
8946;SDS011;4508;48.790;9.028;2023-03-01T09:33:07;18.75;;;16.98;;
8946;SDS011;4508;48.790;9.028;2023-03-01T09:35:40;18.48;;;16.77;;
8946;SDS011;4508;48.790;9.028;2023-03-01T09:38:11;18.90;;;17.17;;
8946;SDS011;4508;48.790;9.028;2023-03-01T09:40:41;19.02;;;17.23;;
8946;SDS011;4508;48.790;9.028;2023-03-01T09:43:12;18.92;;;17.08;;
8946;SDS011;4508;48.790;9.028;2023-03-01T09:45:46;18.35;;;16.65;;
8946;SDS011;4508;48.790;9.028;2023-03-01T09:48:16;18.27;;;16.48;;
8946;SDS011;4508;48.790;9.028;2023-03-01T09:50:48;18.60;;;16.95;;
8946;SDS011;4508;48.790;9.028;2023-03-01T09:53:16;18.23;;;16.52;;
8946;SDS011;4508;48.790;9.028;2023-03-01T09:55:45;18.42;;;16.73;;
8946;SDS011;4508;48.790;9.028;2023-03-01T09:58:29;18.90;;;17.10;;
8946;SDS011;4508;48.790;9.028;2023-03-01T10:01:02;18.45;;;16.75;;
8946;SDS011;4508;48.790;9.028;2023-03-01T10:03:41;18.77;;;16.98;;
8946;SDS011;4508;48.790;9.028;2023-03-01T10:06:13;19.03;;;17.23;;
8946;SDS011;4508;48.790;9.028;2023-03-01T10:08:46;19.58;;;17.73;;
8946;SDS011;4508;48.790;9.028;2023-03-01T10:11:20;18.60;;;16.90;;
8946;SDS011;4508;48.790;9.028;2023-03-01T10:13:50;18.05;;;16.35;;
8946;SDS011;4508;48.790;9.028;2023-03-01T10:16:26;19.40;;;17.50;;
8946;SDS011;4508;48.790;9.028;2023-03-01T10:19:00;18.73;;;16.92;;
8946;SDS011;4508;48.790;9.028;2023-03-01T10:21:30;18.33;;;16.58;;
8946;SDS011;4508;48.790;9.028;2023-03-01T10:24:04;18.33;;;16.67;;
8946;SDS011;4508;48.790;9.028;2023-03-01T10:26:39;18.00;;;16.30;;
8946;SDS011;4508;48.790;9.028;2023-03-01T10:29:15;18.30;;;16.60;;
8946;SDS011;4508;48.790;9.028;2023-03-01T10:31:42;19.60;;;17.25;;
8946;SDS011;4508;48.790;9.028;2023-03-01T10:34:11;18.95;;;17.15;;
8946;SDS011;4508;48.790;9.028;2023-03-01T10:36:41;19.27;;;17.48;;
8946;SDS011;4508;48.790;9.028;2023-03-01T10:39:13;19.70;;;17.83;;
8946;SDS011;4508;48.790;9.028;2023-03-01T10:44:41;19.05;;;17.25;;
8946;SDS011;4508;48.790;9.028;2023-03-01T10:47:16;18.95;;;17.17;;
8946;SDS011;4508;48.790;9.028;2023-03-01T10:49:53;18.55;;;16.75;;
8946;SDS011;4508;48.790;9.028;2023-03-01T10:52:27;18.38;;;16.58;;
8946;SDS011;4508;48.790;9.028;2023-03-01T10:54:59;17.85;;;16.25;;
8946;SDS011;4508;48.790;9.028;2023-03-01T10:57:31;18.50;;;16.70;;
8946;SDS011;4508;48.790;9.028;2023-03-01T11:00:18;18.33;;;16.63;;
8946;SDS011;4508;48.790;9.028;2023-03-01T11:02:48;18.50;;;16.70;;
8946;SDS011;4508;48.790;9.028;2023-03-01T11:05:19;18.77;;;16.95;;
8946;SDS011;4508;48.790;9.028;2023-03-01T11:07:50;18.95;;;17.20;;
8946;SDS011;4508;48.790;9.028;2023-03-01T11:10:19;18.25;;;16.50;;
8946;SDS011;4508;48.790;9.028;2023-03-01T11:12:48;17.63;;;16.00;;
8946;SDS011;4508;48.790;9.028;2023-03-01T11:15:23;19.40;;;16.88;;
8946;SDS011;4508;48.790;9.028;2023-03-01T11:17:52;18.52;;;16.63;;
8946;SDS011;4508;48.790;9.028;2023-03-01T11:20:24;17.70;;;16.00;;
8946;SDS011;4508;48.790;9.028;2023-03-01T11:22:54;18.13;;;16.42;;
8946;SDS011;4508;48.790;9.028;2023-03-01T11:25:24;18.17;;;16.47;;
8946;SDS011;4508;48.790;9.028;2023-03-01T11:27:53;17.45;;;15.85;;
8946;SDS011;4508;48.790;9.028;2023-03-01T11:30:22;17.98;;;16.20;;
8946;SDS011;4508;48.790;9.028;2023-03-01T11:32:55;16.63;;;15.00;;
8946;SDS011;4508;48.790;9.028;2023-03-01T11:35:29;16.48;;;14.98;;
8946;SDS011;4508;48.790;9.028;2023-03-01T11:38:02;16.50;;;14.90;;
8946;SDS011;4508;48.790;9.028;2023-03-01T11:40:39;16.50;;;15.00;;
8946;SDS011;4508;48.790;9.028;2023-03-01T11:43:11;16.83;;;15.32;;
8946;SDS011;4508;48.790;9.028;2023-03-01T11:45:47;16.90;;;15.30;;
8946;SDS011;4508;48.790;9.028;2023-03-01T11:48:28;16.13;;;14.52;;
8946;SDS011;4508;48.790;9.028;2023-03-01T11:51:05;15.57;;;14.18;;
8946;SDS011;4508;48.790;9.028;2023-03-01T11:56:31;16.67;;;14.85;;
8946;SDS011;4508;48.790;9.028;2023-03-01T11:59:03;15.98;;;14.48;;
8946;SDS011;4508;48.790;9.028;2023-03-01T12:01:51;16.42;;;14.88;;
8946;SDS011;4508;48.790;9.028;2023-03-01T12:04:32;15.60;;;14.20;;
8946;SDS011;4508;48.790;9.028;2023-03-01T12:07:15;15.80;;;14.30;;
8946;SDS011;4508;48.790;9.028;2023-03-01T12:10:01;15.73;;;14.32;;
8946;SDS011;4508;48.790;9.028;2023-03-01T12:12:49;14.75;;;13.35;;
8946;SDS011;4508;48.790;9.028;2023-03-01T12:15:33;14.73;;;13.43;;
8946;SDS011;4508;48.790;9.028;2023-03-01T12:18:30;14.93;;;13.52;;
8946;SDS011;4508;48.790;9.028;2023-03-01T12:21:21;15.57;;;14.07;;
8946;SDS011;4508;48.790;9.028;2023-03-01T12:24:01;14.90;;;13.50;;
8946;SDS011;4508;48.790;9.028;2023-03-01T12:26:42;14.70;;;13.40;;
8946;SDS011;4508;48.790;9.028;2023-03-01T12:29:20;14.77;;;13.38;;
8946;SDS011;4508;48.790;9.028;2023-03-01T12:35:01;14.93;;;13.52;;
8946;SDS011;4508;48.790;9.028;2023-03-01T12:37:40;14.90;;;13.50;;
8946;SDS011;4508;48.790;9.028;2023-03-01T12:40:16;15.00;;;13.60;;
8946;SDS011;4508;48.790;9.028;2023-03-01T12:43:06;14.98;;;13.57;;
8946;SDS011;4508;48.790;9.028;2023-03-01T12:45:42;15.25;;;13.65;;
8946;SDS011;4508;48.790;9.028;2023-03-01T12:48:21;15.45;;;14.05;;
8946;SDS011;4508;48.790;9.028;2023-03-01T12:50:57;15.20;;;13.80;;
8946;SDS011;4508;48.790;9.028;2023-03-01T12:53:29;15.48;;;14.07;;
8946;SDS011;4508;48.790;9.028;2023-03-01T12:56:01;15.60;;;14.20;;
8946;SDS011;4508;48.790;9.028;2023-03-01T12:58:33;15.57;;;14.18;;
8946;SDS011;4508;48.790;9.028;2023-03-01T13:01:04;16.50;;;14.82;;
8946;SDS011;4508;48.790;9.028;2023-03-01T13:03:43;16.05;;;14.55;;
8946;SDS011;4508;48.790;9.028;2023-03-01T13:06:24;15.30;;;14.00;;
8946;SDS011;4508;48.790;9.028;2023-03-01T13:08:58;14.70;;;13.20;;
8946;SDS011;4508;48.790;9.028;2023-03-01T13:11:29;15.40;;;13.93;;
8946;SDS011;4508;48.790;9.028;2023-03-01T13:17:02;15.32;;;13.93;;
8946;SDS011;4508;48.790;9.028;2023-03-01T13:19:29;15.32;;;13.93;;
8946;SDS011;4508;48.790;9.028;2023-03-01T13:21:57;15.45;;;13.95;;
8946;SDS011;4508;48.790;9.028;2023-03-01T13:24:25;15.18;;;13.77;;
8946;SDS011;4508;48.790;9.028;2023-03-01T13:27:09;15.52;;;14.07;;
8946;SDS011;4508;48.790;9.028;2023-03-01T13:29:51;14.80;;;13.30;;
8946;SDS011;4508;48.790;9.028;2023-03-01T13:32:20;16.05;;;14.45;;
8946;SDS011;4508;48.790;9.028;2023-03-01T13:38:13;15.77;;;14.27;;
8946;SDS011;4508;48.790;9.028;2023-03-01T13:41:06;15.17;;;13.77;;
8946;SDS011;4508;48.790;9.028;2023-03-01T13:43:34;16.13;;;14.63;;
8946;SDS011;4508;48.790;9.028;2023-03-01T13:46:07;16.05;;;14.55;;
8946;SDS011;4508;48.790;9.028;2023-03-01T13:48:37;15.70;;;14.20;;
8946;SDS011;4508;48.790;9.028;2023-03-01T13:51:05;16.77;;;15.17;;
8946;SDS011;4508;48.790;9.028;2023-03-01T13:53:36;16.60;;;15.00;;
8946;SDS011;4508;48.790;9.028;2023-03-01T13:56:07;16.25;;;14.65;;
8946;SDS011;4508;48.790;9.028;2023-03-01T13:58:44;15.88;;;14.48;;
8946;SDS011;4508;48.790;9.028;2023-03-01T14:01:22;16.33;;;14.82;;
8946;SDS011;4508;48.790;9.028;2023-03-01T14:03:51;15.38;;;13.98;;
8946;SDS011;4508;48.790;9.028;2023-03-01T14:06:20;15.50;;;14.07;;
8946;SDS011;4508;48.790;9.028;2023-03-01T14:08:49;15.52;;;14.13;;
8946;SDS011;4508;48.790;9.028;2023-03-01T14:11:27;15.90;;;14.40;;
8946;SDS011;4508;48.790;9.028;2023-03-01T14:14:18;15.83;;;14.33;;
8946;SDS011;4508;48.790;9.028;2023-03-01T14:17:01;15.90;;;14.30;;
8946;SDS011;4508;48.790;9.028;2023-03-01T14:19:39;16.02;;;14.52;;
8946;SDS011;4508;48.790;9.028;2023-03-01T14:22:12;15.88;;;14.27;;
8946;SDS011;4508;48.790;9.028;2023-03-01T14:24:46;15.57;;;14.07;;
8946;SDS011;4508;48.790;9.028;2023-03-01T14:27:15;16.02;;;14.50;;
8946;SDS011;4508;48.790;9.028;2023-03-01T14:29:43;15.85;;;14.35;;
8946;SDS011;4508;48.790;9.028;2023-03-01T14:32:15;16.25;;;14.65;;
8946;SDS011;4508;48.790;9.028;2023-03-01T14:34:46;15.75;;;14.35;;
8946;SDS011;4508;48.790;9.028;2023-03-01T14:37:17;16.38;;;14.82;;
8946;SDS011;4508;48.790;9.028;2023-03-01T14:39:48;16.48;;;14.98;;
8946;SDS011;4508;48.790;9.028;2023-03-01T14:42:15;15.43;;;14.00;;
8946;SDS011;4508;48.790;9.028;2023-03-01T14:44:43;16.67;;;15.07;;
8946;SDS011;4508;48.790;9.028;2023-03-01T14:47:14;16.58;;;15.07;;
8946;SDS011;4508;48.790;9.028;2023-03-01T14:49:54;16.93;;;15.33;;
8946;SDS011;4508;48.790;9.028;2023-03-01T14:52:25;16.70;;;15.10;;
8946;SDS011;4508;48.790;9.028;2023-03-01T14:54:59;16.67;;;15.17;;
8946;SDS011;4508;48.790;9.028;2023-03-01T14:57:28;16.80;;;15.13;;
8946;SDS011;4508;48.790;9.028;2023-03-01T14:59:57;17.40;;;15.70;;
8946;SDS011;4508;48.790;9.028;2023-03-01T15:02:26;17.52;;;15.93;;
8946;SDS011;4508;48.790;9.028;2023-03-01T15:04:56;16.98;;;15.40;;
8946;SDS011;4508;48.790;9.028;2023-03-01T15:07:26;17.23;;;15.67;;
8946;SDS011;4508;48.790;9.028;2023-03-01T15:09:56;17.10;;;15.50;;
8946;SDS011;4508;48.790;9.028;2023-03-01T15:12:25;17.33;;;15.70;;
8946;SDS011;4508;48.790;9.028;2023-03-01T15:15:00;17.30;;;15.50;;
8946;SDS011;4508;48.790;9.028;2023-03-01T15:17:30;16.90;;;15.30;;
8946;SDS011;4508;48.790;9.028;2023-03-01T15:19:59;16.88;;;15.27;;
8946;SDS011;4508;48.790;9.028;2023-03-01T15:22:27;17.33;;;15.63;;